X  ZamknijMetar - Lotnicze dane pogodowe     EPKT Katowice International Airport

Temperatura

-3°C Temperatura

-4°C Punkt rosy

93% Wilgotność



Wiatr

 2 km/h

 1 MPH

 0 m/s

 1 KTS



50°
NE
Obecne warunki

Mist Mist
Ciśnienie 1030.92 (hPa) - 30.44 (in)
Widoczność 2.5 (mi) - 4 (km)
Lotnisko
Kod lotniska EPKT

Lokalizacja Katowice International Airport 23 (km)

Metar:
EPKT 030200Z 05001KT 3700 BR NSC M03/M04 Q1031

Czas: 03-03-2021 03:00